createdAt,value
2018-04-23T00:00:25.575Z,12.25
2018-04-23T00:01:28.141Z,10.30
2018-04-23T00:03:38.618Z,10.60
2018-04-23T00:04:41.911Z,14.65
2018-04-23T00:05:44.429Z,12.50
2018-04-23T00:06:46.955Z,11.65
2018-04-23T00:07:49.508Z,11.40
2018-04-23T00:08:52.040Z,11.63
2018-04-23T00:09:54.565Z,13.57
2018-04-23T00:10:57.144Z,9.50
2018-04-23T00:11:59.671Z,16.77
2018-04-23T00:13:02.197Z,13.48
2018-04-23T00:14:04.728Z,22.65
2018-04-23T00:15:07.291Z,11.20
2018-04-23T00:16:09.807Z,14.27
2018-04-23T00:17:12.359Z,9.93
2018-04-23T00:18:14.881Z,13.35
2018-04-23T00:19:17.397Z,14.77
2018-04-23T00:20:19.960Z,13.70
2018-04-23T00:21:22.517Z,10.52
2018-04-23T00:22:25.046Z,12.27
2018-04-23T00:23:27.569Z,10.95
2018-04-23T00:24:30.093Z,11.90
2018-04-23T00:25:32.616Z,10.77
2018-04-23T00:26:35.943Z,11.85
2018-04-23T00:27:38.476Z,13.55
2018-04-23T00:28:41.755Z,17.58
2018-04-23T00:29:45.054Z,10.60
2018-04-23T00:30:47.585Z,14.20
2018-04-23T00:31:50.147Z,10.23
2018-04-23T00:32:52.714Z,10.57
2018-04-23T00:33:55.245Z,14.82
2018-04-23T00:34:57.769Z,11.12
2018-04-23T00:36:01.057Z,10.13
2018-04-23T00:37:04.382Z,10.18
2018-04-23T00:38:06.911Z,9.45
2018-04-23T00:39:09.447Z,12.73
2018-04-23T00:40:11.973Z,12.57
2018-04-23T00:41:14.519Z,9.18
2018-04-23T00:42:17.040Z,12.50
2018-04-23T00:43:19.602Z,11.43
2018-04-23T00:44:22.117Z,9.55
2018-04-23T00:45:24.639Z,12.35
2018-04-23T00:46:27.155Z,12.27
2018-04-23T00:47:29.720Z,12.82
2018-04-23T00:48:32.249Z,11.95
2018-04-23T00:49:34.775Z,10.45
2018-04-23T00:50:37.295Z,19.48
2018-04-23T00:51:40.584Z,11.65
2018-04-23T00:52:43.153Z,11.07
2018-04-23T00:53:46.444Z,8.63
2018-04-23T00:54:49.004Z,15.55
2018-04-23T00:55:52.295Z,19.05
2018-04-23T00:56:54.816Z,17.87
2018-04-23T00:57:57.332Z,14.63
2018-04-23T00:58:59.900Z,9.52
2018-04-23T01:00:02.431Z,10.13
2018-04-23T01:01:04.952Z,10.68
2018-04-23T01:02:07.479Z,13.43
2018-04-23T01:03:10.010Z,10.45
2018-04-23T01:04:12.557Z,9.48
2018-04-23T01:05:15.103Z,10.65
2018-04-23T01:06:17.624Z,9.98
2018-04-23T01:07:20.150Z,8.18
2018-04-23T01:08:22.675Z,9.23
2018-04-23T01:09:25.992Z,9.65
2018-04-23T01:10:28.521Z,10.90
2018-04-23T01:11:31.817Z,9.82
2018-04-23T01:12:34.336Z,12.05
2018-04-23T01:13:36.861Z,9.60
2018-04-23T01:14:39.431Z,9.05
2018-04-23T01:15:41.949Z,9.50
2018-04-23T01:16:44.490Z,11.65
2018-04-23T01:17:47.003Z,9.13
2018-04-23T01:18:50.283Z,10.65
2018-04-23T01:19:53.605Z,9.90
2018-04-23T01:20:56.168Z,9.25
2018-04-23T01:21:58.693Z,19.90
2018-04-23T01:23:02.031Z,8.07
2018-04-23T01:24:04.598Z,9.55
2018-04-23T01:25:07.145Z,12.98
2018-04-23T01:26:09.671Z,14.27
2018-04-23T01:27:12.197Z,11.50
2018-04-23T01:28:14.719Z,15.63
2018-04-23T01:29:18.049Z,11.93
2018-04-23T01:30:20.584Z,8.27
2018-04-23T01:31:23.140Z,16.58
2018-04-23T01:32:25.680Z,13.57
2018-04-23T01:33:28.230Z,9.27
2018-04-23T01:34:30.795Z,10.10
2018-04-23T01:35:33.316Z,16.00
2018-04-23T01:36:35.843Z,9.77
2018-04-23T01:37:38.400Z,8.35
2018-04-23T01:38:40.934Z,13.00
2018-04-23T01:39:43.488Z,19.35
2018-04-23T01:40:46.008Z,10.77
2018-04-23T01:41:48.537Z,17.80
2018-04-23T01:42:51.052Z,12.40
2018-04-23T01:43:54.341Z,9.95
2018-04-23T01:44:57.676Z,10.48
2018-04-23T01:46:00.200Z,15.88
2018-04-23T01:47:03.487Z,12.07
2018-04-23T01:48:06.009Z,11.80
2018-04-23T01:49:08.544Z,11.40
2018-04-23T01:50:11.114Z,12.05
2018-04-23T01:51:13.640Z,14.15
2018-04-23T01:52:16.932Z,21.27
2018-04-23T01:53:20.225Z,20.65
2018-04-23T01:54:22.783Z,12.30
2018-04-23T01:55:26.071Z,15.52
2018-04-23T01:56:28.659Z,15.02
2018-04-23T01:57:31.183Z,13.80
2018-04-23T01:58:33.704Z,16.00
2018-04-23T01:59:36.225Z,13.35
2018-04-23T02:00:39.548Z,16.65
2018-04-23T02:01:42.103Z,15.80
2018-04-23T02:02:44.629Z,12.52
2018-04-23T02:03:47.156Z,16.12
2018-04-23T02:04:49.721Z,10.43
2018-04-23T02:05:52.243Z,13.07
2018-04-23T02:06:55.532Z,18.80
2018-04-23T02:07:58.821Z,13.43
2018-04-23T02:09:01.348Z,11.77
2018-04-23T02:10:03.921Z,15.73
2018-04-23T02:11:06.456Z,12.80
2018-04-23T02:12:08.989Z,11.75
2018-04-23T02:13:11.515Z,14.07
2018-04-23T02:14:14.052Z,13.75
2018-04-23T02:15:16.622Z,10.77
2018-04-23T02:16:19.157Z,18.35
2018-04-23T02:17:21.684Z,13.93
2018-04-23T02:18:24.216Z,12.65
2018-04-23T02:19:26.738Z,13.93
2018-04-23T02:20:30.068Z,15.88
2018-04-23T02:21:32.599Z,16.58
2018-04-23T02:22:35.131Z,13.50
2018-04-23T02:23:37.696Z,12.60
2018-04-23T02:24:40.223Z,20.12
2018-04-23T02:25:42.760Z,17.67
2018-04-23T02:26:46.059Z,16.60
2018-04-23T02:27:48.583Z,13.15
2018-04-23T02:28:51.162Z,17.73
2018-04-23T02:29:54.456Z,11.20
2018-04-23T02:30:57.749Z,12.98
2018-04-23T02:32:00.286Z,12.70
2018-04-23T02:33:02.820Z,15.60
2018-04-23T02:34:05.389Z,12.90
2018-04-23T02:35:07.922Z,13.23
2018-04-23T02:36:10.456Z,12.85
2018-04-23T02:37:13.753Z,15.45
2018-04-23T02:38:17.039Z,13.65
2018-04-23T02:39:20.375Z,12.32
2018-04-23T02:40:22.924Z,15.48
2018-04-23T02:41:25.458Z,12.40
2018-04-23T02:42:28.745Z,13.77
2018-04-23T02:43:32.029Z,14.60
2018-04-23T02:44:34.601Z,14.13
2018-04-23T02:45:37.135Z,12.37
2018-04-23T02:46:39.677Z,14.65
2018-04-23T02:47:42.203Z,14.20
2018-04-23T02:48:44.730Z,16.17
2018-04-23T02:49:47.295Z,13.52
2018-04-23T02:50:49.824Z,15.13
2018-04-23T02:51:52.361Z,13.38
2018-04-23T02:52:54.900Z,16.02
2018-04-23T02:53:57.466Z,15.80
2018-04-23T02:55:00.001Z,26.25
2018-04-23T02:56:02.530Z,17.70
2018-04-23T02:57:05.052Z,18.00
2018-04-23T02:58:07.609Z,16.75
2018-04-23T02:59:10.199Z,19.62
2018-04-23T03:00:12.720Z,16.65
2018-04-23T03:01:15.247Z,21.55
2018-04-23T03:02:18.546Z,21.10
2018-04-23T03:03:21.080Z,22.45
2018-04-23T03:04:23.644Z,19.70
2018-04-23T03:05:26.173Z,17.45
2018-04-23T03:06:28.695Z,18.67
2018-04-23T03:07:32.006Z,19.58
2018-04-23T03:08:34.572Z,15.60
2018-04-23T03:09:37.109Z,17.67
2018-04-23T03:10:40.409Z,18.05
2018-04-23T03:11:42.944Z,18.45
2018-04-23T03:12:45.506Z,19.75
2018-04-23T03:13:48.075Z,21.00
2018-04-23T03:14:51.371Z,20.45
2018-04-23T03:15:54.674Z,17.30
2018-04-23T03:16:57.203Z,13.35
2018-04-23T03:17:59.718Z,22.80
2018-04-23T03:19:02.299Z,16.75
2018-04-23T03:20:04.831Z,15.27
2018-04-23T03:21:08.126Z,25.20
2018-04-23T03:22:10.659Z,28.08
2018-04-23T03:23:13.194Z,18.42
2018-04-23T03:24:15.768Z,17.17
2018-04-23T03:25:18.334Z,16.48
2018-04-23T03:26:20.863Z,15.23
2018-04-23T03:27:23.412Z,14.48
2018-04-23T03:28:26.699Z,16.85
2018-04-23T03:29:29.983Z,18.48
2018-04-23T03:30:33.308Z,13.62
2018-04-23T03:31:35.839Z,19.73
2018-04-23T03:32:38.376Z,20.23
2018-04-23T03:33:40.908Z,15.93
2018-04-23T03:34:44.212Z,16.00
2018-04-23T03:35:46.775Z,19.33
2018-04-23T03:36:49.297Z,19.00
2018-04-23T03:37:51.826Z,13.40
2018-04-23T03:38:54.357Z,18.75
2018-04-23T03:39:56.885Z,16.02
2018-04-23T03:40:59.451Z,13.48
2018-04-23T03:42:02.008Z,20.02
2018-04-23T03:43:05.307Z,14.73
2018-04-23T03:44:07.836Z,16.00
2018-04-23T03:45:10.408Z,9.48
2018-04-23T03:46:12.936Z,17.12
2018-04-23T03:47:15.472Z,9.38
2018-04-23T03:48:18.006Z,17.58
2018-04-23T03:49:20.531Z,10.60
2018-04-23T03:50:23.123Z,15.43
2018-04-23T03:51:25.647Z,11.35
2018-04-23T03:52:28.176Z,15.52
2018-04-23T03:53:30.696Z,12.10
2018-04-23T03:54:33.228Z,14.57
2018-04-23T03:55:35.776Z,10.85
2018-04-23T03:56:39.064Z,11.73
2018-04-23T03:57:42.434Z,12.95
2018-04-23T03:58:44.923Z,14.32
2018-04-23T03:59:48.246Z,17.55
2018-04-23T04:00:50.773Z,15.45
2018-04-23T04:01:54.077Z,27.37
2018-04-23T04:02:56.604Z,11.45
2018-04-23T04:03:59.164Z,14.68
2018-04-23T04:05:01.692Z,12.63
2018-04-23T04:06:04.223Z,16.27
2018-04-23T04:07:06.810Z,14.35
2018-04-23T04:08:09.362Z,17.17
2018-04-23T04:09:11.893Z,13.65
2018-04-23T04:10:14.412Z,18.80
2018-04-23T04:11:16.937Z,22.45
2018-04-23T04:12:31.537Z,14.20
2018-04-23T04:13:45.936Z,17.15
2018-04-23T04:15:00.414Z,15.57
2018-04-23T04:16:14.865Z,16.87
2018-04-23T04:17:17.425Z,17.02
2018-04-23T04:18:40.705Z,21.05
2018-04-23T04:19:43.244Z,14.70
2018-04-23T04:20:46.620Z,22.50
2018-04-23T04:21:49.200Z,21.37
2018-04-23T04:22:51.757Z,22.08
2018-04-23T04:23:54.292Z,16.30
2018-04-23T04:24:56.821Z,17.55
2018-04-23T04:25:59.357Z,18.75
2018-04-23T04:27:01.928Z,17.55
2018-04-23T04:28:04.467Z,15.75
2018-04-23T04:29:07.756Z,13.93
2018-04-23T04:30:11.057Z,15.82
2018-04-23T04:31:13.585Z,15.27
2018-04-23T04:32:16.156Z,18.75
2018-04-23T04:33:18.696Z,12.98
2018-04-23T04:34:21.220Z,13.90
2018-04-23T04:35:23.765Z,15.48
2018-04-23T04:36:27.058Z,18.48
2018-04-23T04:37:29.632Z,13.98
2018-04-23T04:38:32.156Z,13.15
2018-04-23T04:39:34.684Z,11.40
2018-04-23T04:40:37.261Z,12.95
2018-04-23T04:41:39.824Z,16.23
2018-04-23T04:42:42.354Z,12.45
2018-04-23T04:43:45.646Z,14.00
2018-04-23T04:44:48.188Z,18.17
2018-04-23T04:45:50.752Z,14.35
2018-04-23T04:46:53.277Z,15.93
2018-04-23T04:47:55.807Z,13.65
2018-04-23T04:48:59.103Z,15.63
2018-04-23T04:50:01.667Z,16.10
2018-04-23T04:51:04.194Z,12.13
2018-04-23T04:52:06.723Z,17.02
2018-04-23T04:53:09.260Z,14.45
2018-04-23T04:54:11.794Z,18.92
2018-04-23T04:55:14.356Z,22.87
2018-04-23T04:56:16.881Z,18.12
2018-04-23T04:57:19.415Z,16.75
2018-04-23T04:58:22.707Z,20.40
2018-04-23T04:59:25.266Z,17.12
2018-04-23T05:00:28.561Z,19.27
2018-04-23T05:01:31.087Z,18.80
2018-04-23T05:02:33.656Z,27.50
2018-04-23T05:03:36.187Z,19.00
2018-04-23T05:04:38.728Z,18.80
2018-04-23T05:05:41.274Z,19.45
2018-04-23T05:06:44.580Z,18.52
2018-04-23T05:07:47.143Z,17.92
2018-04-23T05:08:49.677Z,13.48
2018-04-23T05:09:52.205Z,18.17
2018-04-23T05:10:54.748Z,16.42
2018-04-23T05:11:57.273Z,18.15
2018-04-23T05:12:59.861Z,18.75
2018-04-23T05:14:03.153Z,19.45
2018-04-23T05:15:05.700Z,16.95
2018-04-23T05:16:09.009Z,16.85
2018-04-23T05:17:11.539Z,18.60
2018-04-23T05:18:14.096Z,24.30
2018-04-23T05:19:16.620Z,20.20
2018-04-23T05:20:19.155Z,18.55
2018-04-23T05:21:22.476Z,19.62
2018-04-23T05:22:25.004Z,25.05
2018-04-23T05:23:28.303Z,19.08
2018-04-23T05:24:30.838Z,22.25
2018-04-23T05:25:33.363Z,25.10
2018-04-23T05:26:35.913Z,26.37
2018-04-23T05:27:38.439Z,30.88
2018-04-23T05:28:41.018Z,24.35
2018-04-23T05:29:44.312Z,29.35
2018-04-23T05:30:47.610Z,21.75
2018-04-23T05:31:50.133Z,26.37
2018-04-23T05:32:52.673Z,23.98
2018-04-23T05:33:56.016Z,19.08
2018-04-23T05:34:59.315Z,23.17
2018-04-23T05:36:01.844Z,20.58
2018-04-23T05:37:04.371Z,19.60
2018-04-23T05:38:06.897Z,24.73
2018-04-23T05:39:10.215Z,26.70
2018-04-23T05:40:12.745Z,23.35
2018-04-23T05:41:16.045Z,22.40
2018-04-23T05:42:18.574Z,24.98
2018-04-23T05:43:21.105Z,21.62
2018-04-23T05:44:23.671Z,19.65
2018-04-23T05:45:26.224Z,24.35
2018-04-23T05:46:28.761Z,28.77
2018-04-23T05:47:31.331Z,22.33
2018-04-23T05:48:34.668Z,26.15
2018-04-23T05:49:37.243Z,20.65
2018-04-23T05:50:39.767Z,23.83
2018-04-23T05:51:42.296Z,20.25
2018-04-23T05:52:45.600Z,18.00
2018-04-23T05:53:48.915Z,22.27
2018-04-23T05:54:51.439Z,24.05
2018-04-23T05:55:54.905Z,19.50
2018-04-23T05:56:57.443Z,23.65
2018-04-23T05:58:00.776Z,29.12
2018-04-23T05:59:04.087Z,20.52
2018-04-23T06:00:06.634Z,24.50
2018-04-23T06:01:09.933Z,23.73
2018-04-23T06:02:12.468Z,25.85
2018-04-23T06:03:15.806Z,18.12
2018-04-23T06:04:18.334Z,27.60
2018-04-23T06:05:21.638Z,23.15
2018-04-23T06:06:24.164Z,22.75
2018-04-23T06:07:26.701Z,27.48
2018-04-23T06:08:29.269Z,21.58
2018-04-23T06:09:31.826Z,24.12
2018-04-23T06:10:34.349Z,19.00
2018-04-23T06:11:37.638Z,20.70
2018-04-23T06:12:40.173Z,20.92
2018-04-23T06:13:42.712Z,23.70
2018-04-23T06:14:45.274Z,22.17
2018-04-23T06:15:47.857Z,18.37
2018-04-23T06:16:50.403Z,25.60
2018-04-23T06:17:52.934Z,22.42
2018-04-23T06:18:55.473Z,19.85
2018-04-23T06:19:58.004Z,18.83
2018-04-23T06:21:01.335Z,22.23
2018-04-23T06:22:03.864Z,26.55
2018-04-23T06:23:06.408Z,22.00
2018-04-23T06:24:08.932Z,27.55
2018-04-23T06:25:12.259Z,26.00
2018-04-23T06:26:14.784Z,23.02
2018-04-23T06:27:18.082Z,36.28
2018-04-23T06:28:21.370Z,29.95
2018-04-23T06:29:23.901Z,20.70
2018-04-23T06:30:26.465Z,27.73
2018-04-23T06:31:29.000Z,34.78
2018-04-23T06:32:31.525Z,23.75
2018-04-23T06:33:34.822Z,22.42
2018-04-23T06:34:37.356Z,26.73
2018-04-23T06:35:39.927Z,29.40
2018-04-23T06:36:42.456Z,29.23
2018-04-23T06:37:44.983Z,27.98
2018-04-23T06:38:47.509Z,29.85
2018-04-23T06:39:50.054Z,23.55
2018-04-23T06:40:52.607Z,29.17
2018-04-23T06:41:55.130Z,36.00
2018-04-23T06:42:58.430Z,21.05
2018-04-23T06:44:00.968Z,28.67
2018-04-23T06:45:03.496Z,25.52
2018-04-23T06:46:06.090Z,37.00
2018-04-23T06:47:08.621Z,28.85
2018-04-23T06:48:11.140Z,29.23
2018-04-23T06:49:14.436Z,33.65
2018-04-23T06:50:17.729Z,26.62
2018-04-23T06:51:20.351Z,30.05
2018-04-23T06:52:22.873Z,33.40
2018-04-23T06:53:25.406Z,28.40
2018-04-23T06:54:28.701Z,25.88
2018-04-23T06:55:32.032Z,28.95
2018-04-23T06:56:34.591Z,25.50
2018-04-23T06:57:37.155Z,26.10
2018-04-23T06:58:39.715Z,30.20
2018-04-23T06:59:42.233Z,29.83
2018-04-23T07:00:44.765Z,25.85
2018-04-23T07:01:47.331Z,25.67
2018-04-23T07:02:49.885Z,30.42
2018-04-23T07:03:52.404Z,25.45
2018-04-23T07:04:54.942Z,32.28
2018-04-23T07:05:57.479Z,30.58
2018-04-23T07:07:00.005Z,33.08
2018-04-23T07:08:02.580Z,29.00
2018-04-23T07:09:06.660Z,28.10
2018-04-23T07:10:09.185Z,31.67
2018-04-23T07:11:11.722Z,31.25
2018-04-23T07:12:14.262Z,42.95
2018-04-23T07:13:16.830Z,28.27
2018-04-23T07:14:19.397Z,38.50
2018-04-23T07:15:21.916Z,28.35
2018-04-23T07:16:24.458Z,35.80
2018-04-23T07:17:26.987Z,34.53
2018-04-23T07:18:29.527Z,27.92
2018-04-23T07:19:32.100Z,38.53
2018-04-23T07:20:34.629Z,26.35
2018-04-23T07:21:37.153Z,25.48
2018-04-23T07:22:39.684Z,27.23
2018-04-23T07:23:42.244Z,33.63
2018-04-23T07:24:44.791Z,30.35
2018-04-23T07:25:47.320Z,26.40
2018-04-23T07:26:49.884Z,25.00
2018-04-23T07:27:52.423Z,28.27
2018-04-23T07:28:54.954Z,32.28
2018-04-23T07:29:57.479Z,25.40
2018-04-23T07:31:00.007Z,28.10
2018-04-23T07:32:02.602Z,27.62
2018-04-23T07:33:05.128Z,24.65
2018-04-23T07:34:07.664Z,28.65
2018-04-23T07:35:10.974Z,32.50
2018-04-23T07:36:13.541Z,21.62
2018-04-23T07:37:16.064Z,27.73
2018-04-23T07:38:18.588Z,26.23
2018-04-23T07:39:21.108Z,29.73
2018-04-23T07:40:23.639Z,31.52
2018-04-23T07:41:26.213Z,34.10
2018-04-23T07:42:28.789Z,35.10
2018-04-23T07:43:31.314Z,41.22
2018-04-23T07:44:33.851Z,30.52
2018-04-23T07:45:37.144Z,39.03
2018-04-23T07:46:40.467Z,31.58
2018-04-23T07:47:42.992Z,32.80
2018-04-23T07:48:46.278Z,31.92
2018-04-23T07:49:48.806Z,28.92
2018-04-23T07:50:51.335Z,29.77
2018-04-23T07:51:53.905Z,36.90
2018-04-23T07:52:56.424Z,35.58
2018-04-23T07:53:58.951Z,31.77
2018-04-23T07:55:01.473Z,30.62
2018-04-23T07:56:04.036Z,37.83
2018-04-23T07:57:07.368Z,31.55
2018-04-23T07:58:09.900Z,28.60
2018-04-23T07:59:12.433Z,35.83
2018-04-23T08:00:14.952Z,32.92
2018-04-23T08:01:17.489Z,29.75
2018-04-23T08:02:20.816Z,28.90
2018-04-23T08:03:23.357Z,23.35
2018-04-23T08:04:25.885Z,37.20
2018-04-23T08:05:28.440Z,27.00
2018-04-23T08:06:30.991Z,32.38
2018-04-23T08:07:33.517Z,29.40
2018-04-23T08:08:36.106Z,31.52
2018-04-23T08:09:38.643Z,24.87
2018-04-23T08:10:41.172Z,36.97
2018-04-23T08:11:43.699Z,27.95
2018-04-23T08:12:46.230Z,33.08
2018-04-23T08:13:49.562Z,30.58
2018-04-23T08:14:52.096Z,30.40
2018-04-23T08:15:54.622Z,23.35
2018-04-23T08:16:57.189Z,23.77
2018-04-23T08:17:59.722Z,26.00
2018-04-23T08:19:02.281Z,33.95
2018-04-23T08:20:04.816Z,36.05
2018-04-23T08:21:08.110Z,27.45
2018-04-23T08:22:10.641Z,25.83
2018-04-23T08:23:13.177Z,29.02
2018-04-23T08:24:15.741Z,26.95
2018-04-23T08:25:18.277Z,29.70
2018-04-23T08:26:20.813Z,31.60
2018-04-23T08:27:24.108Z,42.65
2018-04-23T08:28:27.411Z,25.27
2018-04-23T08:29:29.959Z,25.67
2018-04-23T08:30:33.255Z,27.87
2018-04-23T08:31:35.823Z,29.33
2018-04-23T08:32:38.381Z,23.85
2018-04-23T08:33:41.680Z,19.50
2018-04-23T08:34:44.212Z,25.52
2018-04-23T08:35:46.742Z,23.95
2018-04-23T08:36:49.318Z,25.12
2018-04-23T08:37:51.847Z,26.25
2018-04-23T08:38:54.371Z,24.05
2018-04-23T08:39:56.937Z,23.15
2018-04-23T08:40:59.473Z,22.85
2018-04-23T08:42:02.005Z,26.85
2018-04-23T08:43:04.559Z,23.05
2018-04-23T08:44:07.856Z,22.45
2018-04-23T08:45:10.431Z,32.22
2018-04-23T08:46:12.962Z,21.52
2018-04-23T08:47:15.505Z,21.05
2018-04-23T08:48:18.036Z,28.92
2018-04-23T08:49:20.559Z,22.95
2018-04-23T08:50:23.157Z,26.17
2018-04-23T08:51:26.428Z,32.05
2018-04-23T08:52:29.715Z,23.45
2018-04-23T08:53:33.010Z,24.37
2018-04-23T08:54:35.532Z,19.42
2018-04-23T08:55:38.088Z,17.85
2018-04-23T08:56:40.649Z,22.05
2018-04-23T08:57:43.167Z,18.90
2018-04-23T08:58:45.693Z,23.50
2018-04-23T08:59:48.223Z,24.55
2018-04-23T09:00:50.739Z,19.90
2018-04-23T09:01:53.300Z,24.33
2018-04-23T09:02:55.823Z,19.80
2018-04-23T09:03:58.351Z,19.42
2018-04-23T09:05:00.936Z,23.23
2018-04-23T09:06:03.475Z,24.60
2018-04-23T09:07:06.772Z,23.15
2018-04-23T09:08:10.072Z,17.12
2018-04-23T09:09:12.597Z,22.55
2018-04-23T09:10:15.204Z,21.20
2018-04-23T09:11:18.475Z,25.12
2018-04-23T09:12:21.804Z,20.85
2018-04-23T09:13:24.332Z,33.28
2018-04-23T09:14:26.886Z,21.67
2018-04-23T09:15:30.185Z,23.67
2018-04-23T09:16:32.754Z,24.60
2018-04-23T09:17:35.299Z,34.08
2018-04-23T09:18:38.640Z,36.10
2018-04-23T09:19:41.168Z,24.65
2018-04-23T09:20:43.697Z,23.65
2018-04-23T09:21:46.232Z,21.70
2018-04-23T09:22:48.802Z,26.00
2018-04-23T09:23:51.418Z,26.77
2018-04-23T09:24:54.761Z,29.95
2018-04-23T09:25:57.264Z,23.55
2018-04-23T09:27:00.567Z,22.33
2018-04-23T09:28:03.136Z,22.15
2018-04-23T09:29:05.696Z,26.90
2018-04-23T09:30:08.229Z,38.58
2018-04-23T09:31:10.770Z,24.83
2018-04-23T09:32:13.339Z,29.55
2018-04-23T09:33:15.873Z,35.45
2018-04-23T09:34:18.439Z,27.17
2018-04-23T09:35:20.968Z,28.65
2018-04-23T09:36:23.536Z,31.23
2018-04-23T09:37:26.847Z,20.65
2018-04-23T09:38:29.389Z,30.73
2018-04-23T09:39:32.695Z,27.77
2018-04-23T09:40:35.223Z,28.65
2018-04-23T09:41:37.783Z,36.38
2018-04-23T09:42:40.350Z,28.25
2018-04-23T09:43:44.385Z,28.33
2018-04-23T09:44:47.677Z,27.02
2018-04-23T09:45:50.974Z,33.45
2018-04-23T09:46:53.510Z,23.23
2018-04-23T09:47:56.084Z,24.90
2018-04-23T09:48:58.632Z,24.35
2018-04-23T09:50:01.167Z,33.35
2018-04-23T09:51:03.703Z,35.53
2018-04-23T09:52:06.243Z,32.17
2018-04-23T09:53:09.580Z,23.48
2018-04-23T09:54:12.120Z,28.38
2018-04-23T09:55:14.694Z,27.65
2018-04-23T09:56:17.225Z,28.20
2018-04-23T09:57:20.532Z,27.40
2018-04-23T09:58:23.064Z,19.60
2018-04-23T09:59:25.648Z,29.50
2018-04-23T10:00:30.891Z,26.62
2018-04-23T10:01:33.423Z,25.12
2018-04-23T10:02:35.962Z,29.00
2018-04-23T10:03:42.376Z,20.45
2018-04-23T10:04:45.709Z,19.95
2018-04-23T10:05:48.239Z,28.08
2018-04-23T10:06:50.768Z,36.67
2018-04-23T10:07:53.312Z,29.25
2018-04-23T10:08:55.882Z,36.05
2018-04-23T10:09:58.415Z,28.62
2018-04-23T10:11:00.960Z,30.55
2018-04-23T10:12:04.264Z,27.20
2018-04-23T10:13:06.830Z,24.52
2018-04-23T10:14:09.375Z,24.45
2018-04-23T10:15:11.943Z,38.58
2018-04-23T10:16:15.237Z,28.20
2018-04-23T10:17:17.763Z,24.87
2018-04-23T10:18:20.295Z,29.77
2018-04-23T10:19:22.819Z,25.98
2018-04-23T10:20:26.151Z,27.10
2018-04-23T10:21:28.685Z,25.37
2018-04-23T10:22:31.252Z,27.95
2018-04-23T10:23:33.780Z,25.90
2018-04-23T10:24:36.316Z,24.25
2018-04-23T10:25:38.852Z,24.73
2018-04-23T10:26:41.432Z,30.90
2018-04-23T10:27:43.964Z,26.55
2018-04-23T10:28:47.265Z,24.77
2018-04-23T10:29:49.804Z,26.08
2018-04-23T10:30:53.107Z,39.20
2018-04-23T10:31:56.436Z,22.37
2018-04-23T10:32:58.964Z,30.23
2018-04-23T10:34:01.507Z,32.80
2018-04-23T10:35:04.031Z,25.27
2018-04-23T10:36:06.565Z,25.30
2018-04-23T10:37:09.123Z,23.85
2018-04-23T10:38:11.670Z,27.02
2018-04-23T10:39:14.978Z,33.15
2018-04-23T10:40:17.506Z,23.80
2018-04-23T10:41:20.036Z,30.67
2018-04-23T10:42:22.607Z,21.90
2018-04-23T10:43:25.177Z,32.33
2018-04-23T10:44:27.704Z,34.50
2018-04-23T10:45:30.279Z,25.90
2018-04-23T10:46:32.821Z,30.73
2018-04-23T10:47:35.400Z,31.53
2018-04-23T10:48:38.736Z,30.07
2018-04-23T10:49:41.273Z,25.02
2018-04-23T10:50:43.807Z,29.98
2018-04-23T10:51:46.341Z,35.30
2018-04-23T10:52:48.900Z,22.83
2018-04-23T10:53:51.479Z,32.60
2018-04-23T10:54:54.019Z,26.65
2018-04-23T10:55:56.550Z,36.38
2018-04-23T10:56:59.884Z,30.55
2018-04-23T10:58:02.421Z,31.23
2018-04-23T10:59:04.965Z,32.10
2018-04-23T11:00:08.290Z,26.30
2018-04-23T11:01:10.840Z,26.67
2018-04-23T11:02:13.367Z,23.92
2018-04-23T11:03:16.672Z,30.77
2018-04-23T11:04:20.017Z,37.47
2018-04-23T11:05:22.550Z,41.97
2018-04-23T11:06:25.081Z,25.67
2018-04-23T11:07:28.383Z,24.40
2018-04-23T11:08:30.913Z,26.08
2018-04-23T11:09:33.479Z,26.12
2018-04-23T11:10:36.023Z,23.92
2018-04-23T11:11:38.559Z,24.83
2018-04-23T11:12:41.123Z,26.87
2018-04-23T11:13:43.696Z,29.80
2018-04-23T11:14:46.232Z,25.10
2018-04-23T11:15:49.567Z,30.20
2018-04-23T11:16:52.084Z,28.33
2018-04-23T11:17:55.420Z,26.73
2018-04-23T11:18:57.955Z,29.98
2018-04-23T11:20:00.542Z,34.97
2018-04-23T11:21:03.052Z,26.73
2018-04-23T11:22:06.360Z,33.83
2018-04-23T11:23:08.927Z,36.00
2018-04-23T11:24:11.464Z,28.20
2018-04-23T11:25:14.009Z,34.05
2018-04-23T11:26:16.572Z,26.50
2018-04-23T11:27:19.100Z,31.42
2018-04-23T11:28:21.751Z,36.75
2018-04-23T11:29:25.057Z,36.30
2018-04-23T11:30:27.596Z,42.88
2018-04-23T11:31:30.939Z,33.92
2018-04-23T11:32:34.295Z,29.30
2018-04-23T11:33:37.616Z,35.92
2018-04-23T11:34:40.195Z,35.28
2018-04-23T11:35:42.737Z,37.70
2018-04-23T11:36:45.273Z,26.60
2018-04-23T11:37:47.849Z,28.10
2018-04-23T11:38:50.383Z,31.23
2018-04-23T11:39:53.715Z,34.20
2018-04-23T11:40:56.280Z,33.25
2018-04-23T11:41:58.801Z,33.00
2018-04-23T11:43:02.114Z,29.60
2018-04-23T11:44:04.648Z,30.40
2018-04-23T11:45:07.949Z,29.17
2018-04-23T11:46:10.524Z,28.27
2018-04-23T11:47:13.063Z,32.03
2018-04-23T11:48:16.369Z,31.50
2018-04-23T11:49:18.903Z,29.05
2018-04-23T11:50:21.464Z,25.30
2018-04-23T11:51:23.996Z,27.30
2018-04-23T11:52:26.559Z,28.37
2018-04-23T11:53:29.084Z,31.07
2018-04-23T11:54:32.389Z,30.02
2018-04-23T11:55:34.924Z,22.03
2018-04-23T11:56:37.456Z,25.27
2018-04-23T11:57:40.062Z,19.67
2018-04-23T11:58:43.371Z,19.10
2018-04-23T11:59:45.895Z,24.37
2018-04-23T12:00:48.419Z,25.43
2018-04-23T12:01:50.957Z,25.03
2018-04-23T12:02:54.284Z,35.30
2018-04-23T12:03:56.831Z,20.90
2018-04-23T12:04:59.364Z,26.07
2018-04-23T12:06:02.673Z,25.37
2018-04-23T12:07:05.207Z,17.50
2018-04-23T12:08:07.780Z,25.60
2018-04-23T12:09:11.087Z,17.37
2018-04-23T12:10:13.621Z,17.20
2018-04-23T12:11:16.160Z,31.43
2018-04-23T12:12:18.693Z,22.17
2018-04-23T12:13:21.260Z,42.63
2018-04-23T12:14:23.798Z,18.40
2018-04-23T12:15:27.108Z,22.70
2018-04-23T12:16:29.643Z,28.00
2018-04-23T12:17:32.939Z,19.87
2018-04-23T12:18:36.261Z,23.90
2018-04-23T12:19:38.835Z,25.53
2018-04-23T12:20:41.369Z,21.97
2018-04-23T12:21:43.942Z,15.63
2018-04-23T12:22:47.219Z,17.80
2018-04-23T12:23:49.752Z,25.80
2018-04-23T12:24:52.326Z,22.43
2018-04-23T12:25:54.846Z,20.43
2018-04-23T12:26:57.381Z,18.87
2018-04-23T12:27:59.915Z,22.13
2018-04-23T12:29:02.444Z,14.70
2018-04-23T12:30:05.015Z,15.20
2018-04-23T12:31:07.589Z,14.83
2018-04-23T12:32:10.124Z,14.50
2018-04-23T12:33:12.662Z,20.67
2018-04-23T12:34:15.977Z,16.10
2018-04-23T12:35:18.536Z,21.07
2018-04-23T12:36:21.089Z,14.43
2018-04-23T12:37:24.404Z,15.40
2018-04-23T12:38:26.933Z,22.40
2018-04-23T12:39:30.216Z,18.53
2018-04-23T12:40:33.540Z,21.93
2018-04-23T12:41:36.075Z,27.30
2018-04-23T12:42:39.400Z,17.27
2018-04-23T12:43:41.953Z,29.60
2018-04-23T12:44:44.476Z,15.40
2018-04-23T12:45:47.004Z,14.10
2018-04-23T12:46:49.525Z,15.03
2018-04-23T12:47:52.864Z,16.73
2018-04-23T12:48:55.401Z,19.27
2018-04-23T12:49:57.961Z,14.00
2018-04-23T12:51:00.576Z,22.10
2018-04-23T12:52:03.091Z,14.00
2018-04-23T12:53:05.628Z,12.73
2018-04-23T12:54:08.913Z,12.70
2018-04-23T12:55:12.236Z,13.33
2018-04-23T12:56:14.761Z,16.30
2018-04-23T12:57:17.291Z,11.17
2018-04-23T12:58:19.817Z,22.63
2018-04-23T12:59:22.427Z,11.03
2018-04-23T13:00:24.993Z,13.30
2018-04-23T13:01:27.528Z,18.00
2018-04-23T13:02:30.061Z,13.60
2018-04-23T13:03:32.597Z,13.83
2018-04-23T13:04:35.127Z,17.07
2018-04-23T13:05:37.686Z,18.33
2018-04-23T13:06:40.254Z,14.17
2018-04-23T13:07:42.781Z,11.60
2018-04-23T13:08:45.308Z,14.43
2018-04-23T13:09:47.891Z,10.30
2018-04-23T13:10:50.425Z,11.17
2018-04-23T13:11:52.998Z,12.50
2018-04-23T13:12:55.562Z,13.10
2018-04-23T13:13:58.093Z,11.57
2018-04-23T13:15:01.378Z,11.03
2018-04-23T13:16:04.673Z,18.20
2018-04-23T13:17:07.964Z,9.27
2018-04-23T13:18:10.529Z,18.13
2018-04-23T13:19:13.052Z,9.13
2018-04-23T13:20:15.608Z,9.50
2018-04-23T13:21:18.128Z,9.33
2018-04-23T13:22:20.657Z,12.37
2018-04-23T13:23:23.220Z,13.17
2018-04-23T13:24:25.735Z,10.80
2018-04-23T13:25:28.287Z,11.90
2018-04-23T13:26:31.566Z,8.20
2018-04-23T13:27:34.857Z,14.63
2018-04-23T13:28:38.139Z,11.20
2018-04-23T13:29:41.476Z,13.20
2018-04-23T13:30:44.000Z,8.80